Nassau, Delaware
Current Conditions -  °F | °C
As of 7:54 PM on Saturday 22 Nov 2014 (Local Time) from KGED Reporting Station
Clear Clear  
Wind Chill: 30°   Ceiling: Unl
Heat Index: 36°   Visibility: 10mi
Dew Point: 24°   Wind: 8mph
Humidity: 62%   Direction: 200°SSW
Pressure: 30.33"   Gusts: NA
Location:  38.75°N, 75.19°W
Report Text: KGED 230054Z AUTO 20007KT 10SM CLR 02/M04 A3033 RMK AO2 SLP270 T00221044
Loading
Personal Weather Stations






























Interactive Weather Map New forecast layout! Learn more

10-Day Weather Forecast

Advertisements
Track Severe Weather on mobile